Tiempo atmosférico en la estación meteorológica de Carrión De Los Condes, Palencia (830 m.)



Fecha
DESCASC
Temp. máxima en grados centígrados (hora)
DESCASC
Temp. mínima en grados centígrados (hora)
DESCASC
Temp. media en grados centígrados
DESCASC
Racha de viento máxima en m/sg (hora)
DESCASC
Velocidad máxima media en intervalos de 10 minutos(hora)
DESCASC
Precipitaciones diarias en mm
DESCASC
Precipitaciones de 00:00 a 06:00 en mm
DESCASC
Precipitaciones de 06:00 a 12:00 en mm
DESCASC
Precipitaciones de 12:00 a 18:00 en mm
DESCASC
Precipitaciones de 18:00 a 24:00 en mm
DESCASC
05-04-2020 18.5 (14:40) 5.1 (03:00) 11.8 10 (14:40) 5 (14:40) 10 0 0 1 9
04-04-2020 19.1 (16:40) -1.6 (06:20) 8.8 8.33 (15:50) 3.61 (20:20) 0 0 0 0 0
03-04-2020 14.5 (18:00) -2.6 (08:10) 6 4.72 (04:10) 1.94 (10:20) 0 0 0 0 0
02-04-2020 13.2 (16:20) 3.1 (00:00) 8.1 10.56 (15:50) 5 (15:50) 4.8 4.8 0 0 0
01-04-2020 13.8 (15:20) 4.5 (00:00) 9.2 11.11 (19:20) 4.72 (19:40) 0.4 0.4 0 0 0
31-03-2020 7.3 (17:40) -1.2 (-00:0) 3.1 15.28 (13:20) 7.22 (13:40) 0 0 0 0 0
30-03-2020 6 (16:00) -0.7 (-00:0) 2.7 16.67 (04:10) 7.22 (05:10) 0 0 0 0 0
29-03-2020 15.9 (15:40) 0.8 (00:00) 8.3 13.61 (23:59) 5.83 (18:50) 0 0 0 0 0
28-03-2020 15.9 (16:40) -1.7 (-00:0) 7.1 6.11 (21:30) 3.06 (21:30) 0 0 0 0 0
27-03-2020 12.9 (16:50) -1.8 (-00:0) 5.5 10.83 (10:00) 5 (09:50) 0 0 0 0 0
26-03-2020 13.5 (15:10) -3.2 (-00:0) 5.1 8.61 (18:00) 5 (18:10) 0 0 0 0 0
25-03-2020 18.2 (16:00) 0.4 (00:00) 9.3 5.56 (18:30) 3.06 (17:50) 0 0 0 0 0
24-03-2020 16.5 (16:40) 4.3 (00:00) 10.4 8.61 (17:10) 4.17 (09:50) 0 0 0 0 0
23-03-2020 15.9 (17:10) 4.1 (00:00) 10 9.17 (20:30) 4.72 (20:30) 0.2 0 0 0 0.2
22-03-2020 16.8 (14:40) 6.1 (07:30) 11.4 11.39 (17:10) 4.44 (17:10) 0.6 0 0 0.6 0
21-03-2020 15 (17:40) 4.7 (00:00) 9.8 8.06 (11:10) 3.61 (10:40) 0 0 0 0 0
20-03-2020 15.5 (17:10) 4.8 (00:00) 10.2 6.11 (11:30) 3.61 (11:20) 0 0 0 0 0
19-03-2020 16.4 (14:40) 6 (00:00) 11.2 7.5 (11:40) 3.61 (11:50) 0 0 0 0 0
18-03-2020 17.8 (16:20) 3.2 (00:00) 10.5 7.22 (01:40) 2.78 (13:10) 0 0 0 0 0
17-03-2020 12.1 (16:50) 4.2 (00:00) 8.2 16.67 (01:00) 7.5 (00:20) 0 0 0 0 0
16-03-2020 9.2 (14:40) 0.7 (00:00) 4.9 18.33 (11:30) 8.61 (12:00) 6 5.6 0.4 0 0
15-03-2020 18.9 (16:30) -1.6 (-00:0) 8.6 10.83 (23:50) 5 (23:50) 0 0 0 0 0
14-03-2020 16.5 (16:10) -2.4 (-00:0) 7 4.72 (02:00) 2.22 (13:30) 0 0 0 0 0
13-03-2020 12.4 (14:00) 3.2 (23:10) 7.8 12.78 (10:20) 5.83 (12:20) 0 0 0 0 0
12-03-2020 16.3 (14:00) 5.2 (00:00) 10.7 11.94 (19:30) 4.72 (18:00) 0 0 0 0 0
11-03-2020 22.1 (16:50) 0.3 (00:00) 11.2 6.39 (15:20) 3.33 (14:00) 0 0 0 0 0

Gráficas

Temp. máximas Temp. mínimas Temp. medias Precipitaciones Rachas de viento máximas Velocidades máximas media en intervalos de 10 minutos

Datos horarios

Fecha y hora oficial Temperatura (ºC) Velocidad del viento (km/h) Dirección del viento Racha (km/h) Dirección de racha Precipitación (mm) Presión (hPa) Tendencia (hPa) Humedad (%)
2020-04-09 23:00:00 12.6 2 Este 9 Este 0 924.9 0.9 98
2020-04-09 22:00:00 13 5 Este 12 Este 0 924.7 1.1 91
2020-04-09 21:00:00 13.9 0 Calma 5 Nordeste 0.4 924.3 0.8 85
2020-04-09 20:00:00 15 0 Calma 11 Sudoeste 0.2 924 0.8 79
2020-04-09 19:00:00 16 6 Sudoeste 16 Sudoeste 0 923.6 0.2 68
2020-04-09 18:00:00 17.4 5 Sudoeste 21 Sudoeste 0 923.5 -0.3 58
2020-04-09 17:00:00 17.7 6 Sudoeste 20 Sudoeste 0 923.2 -1.1 64
2020-04-09 16:00:00 18.7 7 Sudoeste 20 Sudoeste 0 923.4 -1.3 63
2020-04-09 15:00:00 18.7 10 Sudoeste 21 Sur 0 923.8 -1.3 60
2020-04-09 14:00:00 17.8 5 Sur 14 Sudeste 0 924.3 -1 64
2020-04-09 13:00:00 15.4 5 Este 15 Sudeste 0 924.7 -0.4 77
2020-04-09 12:00:00 14 8 Sudeste 23 Este 0 925.1 0.2 79
2020-04-09 11:00:00 12.9 9 Este 21 Este 0 925.3 0.6 84
2020-04-09 10:00:00 11 8 Este 20 Nordeste 0 925.1 0.4 90
2020-04-09 09:00:00 8.9 6 Nordeste 18 Nordeste 0 924.9 0.1 100
2020-04-09 08:00:00 7.6 5 Nordeste 17 Nordeste 0 924.7 -0.3 99
2020-04-09 07:00:00 7.7 5 Nordeste 12 Nordeste 0 924.7 -0.7 99
2020-04-09 06:00:00 8.2 6 Nordeste 14 Nordeste 0 924.8 -0.9 100
2020-04-09 05:00:00 8.2 4 Nordeste 13 Nordeste 0 925 -1 100
2020-04-09 04:00:00 7.2 2 Norte 8 Nordeste 0 925.4 -0.9 99
2020-04-09 03:00:00 7.7 0 Calma 7 Nordeste 0 925.7 -0.8 97
2020-04-09 02:00:00 7.9 3 Nordeste 9 Nordeste 0 926 -0.5 94
2020-04-09 01:00:00 8.3 3 Nordeste 8 Nordeste 0 926.3 0.2 91
2020-04-09 00:00:00 8.8 2 Norte 3 Norte 0 926.5 0.8 88
2020-04-08 23:00:00 10.3 0 Calma 4 Este 0 926.5 0.8 84
2020-04-08 22:00:00 12.2 0 Calma 5 Sur 0 926.1 0.6 80
2020-04-08 21:00:00 14.5 3 Nordeste 7 Sudoeste 0 925.7 0 76
2020-04-08 20:00:00 17.1 2 Oeste 14 Oeste 0 925.7 -0.5 62
2020-04-08 19:00:00 19.3 4 Oeste 15 Sudoeste 0 925.5 -1.3 49
2020-04-08 18:00:00 19.6 6 Sudoeste 16 Sudoeste 0 925.7 -1.7 51
2020-04-08 17:00:00 19.7 6 Sudoeste 15 Sudoeste 0 926.2 -1.7 50
2020-04-08 16:00:00 17.8 8 Noroeste 16 Norte 0 926.8 -1.7 58
2020-04-08 15:00:00 18.3 4 Noroeste 16 Noroeste 0 927.4 -1.3 61
2020-04-08 14:00:00 15.9 2 Noroeste 13 Sur 0 927.9 -0.8 72
2020-04-08 13:00:00 14.7 5 Sur 11 Sur 0 928.5 0 75
2020-04-08 12:00:00 13.3 4 Sudoeste 8 Sur 0 928.7 0.3 82
2020-04-08 11:00:00 12.2 4 Este 10 Nordeste 0 928.7 0.6 89
2020-04-08 10:00:00 11.2 5 Nordeste 12 Nordeste 0 928.5 0.5 94
2020-04-08 09:00:00 10.6 4 Nordeste 10 Nordeste 0 928.4 0.4 100
2020-04-08 08:00:00 10.1 3 Norte 14 Nordeste 0 928.1 -0.2 100
2020-04-08 07:00:00 9.9 5 Nordeste 12 Nordeste 0 928 -0.5 100
2020-04-08 06:00:00 9.9 5 Nordeste 14 Nordeste 0 928 -1 99
2020-04-08 05:00:00 10.1 6 Nordeste 15 Nordeste 0 928.3 -0.7 99
2020-04-08 04:00:00 9.5 6 Nordeste 19 Nordeste 0 928.5 -0.4 99
2020-04-08 03:00:00 10 6 Nordeste 19 Este 0 929 0.4 100
2020-04-08 02:00:00 10 6 Nordeste 15 Este 0 929 0.6 99
2020-04-08 01:00:00 10.2 6 Nordeste 18 Este 0 928.9 1.1 98
2020-04-08 00:00:00 11 6 Este 19 Este 0 928.6 1.4 89
2020-04-07 23:00:00 11.6 8 Nordeste 21 Este 0 928.4 1.5 87
2020-04-07 22:00:00 12.1 3 Este 10 Noroeste 0 927.8 1.1 81
2020-04-07 21:00:00 13.8 4 Noroeste 8 Oeste 0 927.2 0.6 77
2020-04-07 20:00:00 16.1 0 Calma 7 Noroeste 0 926.9 0.2 62
2020-04-07 19:00:00 17.3 3 Oeste 8 Noroeste 0 926.7 -0.3 57
2020-04-07 18:00:00 18.3 4 Oeste 15 Sudoeste 0 926.6 -0.7 54
2020-04-07 17:00:00 18 4 Sudoeste 16 Sudoeste 0 926.7 -1 57
2020-04-07 16:00:00 17.8 7 Sudoeste 17 Sudoeste 0 927 -0.9 57
2020-04-07 15:00:00 17.3 5 Sudoeste 21 Sudoeste 0 927.3 -0.9 57
2020-04-07 14:00:00 18.1 7 Sur 18 Sudoeste 0 927.7 -0.3 57
2020-04-07 13:00:00 16.7 4 Sudeste 12 Sudeste 0 927.9 0 61
2020-04-07 12:00:00 15.8 4 Oeste 10 Sudeste 0 928.2 0.5 68
2020-04-07 11:00:00 13.5 4 Sudeste 11 Este 0 928 0.8 77
2020-04-07 10:00:00 11.1 5 Este 10 Este 0 927.9 0.9 92
2020-04-07 09:00:00 9.4 5 Norte 8 Norte 0 927.7 0.7 --
2020-04-07 08:00:00 9 2 Norte 6 Este 0.2 927.2 0.2 100
2020-04-07 07:00:00 9 0 Calma 5 Norte 0 927 -0.3 100
2020-04-07 06:00:00 9.1 2 Norte 7 Sudeste 0 927 -0.5 100
2020-04-07 05:00:00 9.2 3 Sudeste 5 Sudeste 0 927 -0.5 99
2020-04-07 04:00:00 9.1 2 Sur 9 Sudoeste 0.4 927.3 0 98
2020-04-07 03:00:00 9.4 5 Sudeste 12 Sur 0 927.5 0.1 96
2020-04-07 02:00:00 9.8 3 Sur 10 Sudeste 0 927.5 0.2 95
2020-04-07 01:00:00 10 3 Sur 7 Sur 0 927.3 0.2 97
2020-04-07 00:00:00 10.1 2 Sur 4 Sur 0.2 927.4 1.1 93
2020-04-06 23:00:00 10.3 2 Sudoeste 9 Sudoeste 0 927.3 1.3 88
2020-04-06 22:00:00 10.6 3 Sudoeste 12 Sudoeste 0 927.1 1.3 86
2020-04-06 21:00:00 11.2 6 Sudoeste 14 Sudoeste 0 926.3 0.8 84
2020-04-06 20:00:00 11.7 8 Sudoeste 20 Sudoeste 0 926 1 81
2020-04-06 19:00:00 12.2 10 Sudoeste 37 Sudoeste 0.2 925.8 0.5 77
2020-04-06 18:00:00 12.8 21 Sudoeste 42 Sudoeste 0 925.5 0.2 78
2020-04-06 17:00:00 15.8 8 Sudoeste 26 Sudoeste 0 925 0.1 62
2020-04-06 16:00:00 16.7 12 Sudoeste 30 Sudoeste 0 925.3 0.7 58
2020-04-06 15:00:00 17.1 14 Sudoeste 35 Sudoeste 0 925.3 0.9 59
2020-04-06 14:00:00 14.7 11 Sudoeste 27 Sudoeste 0 924.9 1.2 72
2020-04-06 13:00:00 14.5 9 Sudoeste 26 Sudoeste 0 924.6 1.9 78
2020-04-06 12:00:00 12.3 8 Sudoeste 22 Sudoeste 0.4 924.4 2.5 90
2020-04-06 11:00:00 11.5 13 Sudoeste 36 Sudoeste 0 923.7 2.2 97
2020-04-06 10:00:00 11.5 15 Sudoeste 31 Sudoeste 1.4 922.7 1.8 --
2020-04-06 09:00:00 11 12 Sudoeste 23 Sur 0.2 921.9 1.1 --
2020-04-06 08:00:00 10.8 9 Sudoeste 25 Sudoeste 0.4 921.5 0.6 --
2020-04-06 07:00:00 10.7 8 Sur 19 Sur 0.4 920.9 -0.1 --
2020-04-06 06:00:00 10.4 6 Sudeste 16 Este 0.8 920.8 -0.7 --
2020-04-06 05:00:00 10.4 8 Sudeste 24 Este 0 920.9 -0.8 --
2020-04-06 04:00:00 10.3 5 Este 10 Este 2 921 -0.5 100
2020-04-06 03:00:00 10 3 Este 6 Sur 0.4 921.5 -0.1 100
2020-04-06 02:00:00 10 0 Calma 5 Noroeste 0.4 921.7 0 99
2020-04-06 01:00:00 10.2 4 Sudoeste 20 Sur 0.4 921.5 -0.1 98
2020-04-06 00:00:00 10.5 4 Sur 13 Sudeste 1.4 921.6 0.8 99
2020-04-05 23:00:00 10.6 0 Calma 8 Sudoeste 1.4 921.7 1.5 98
2020-04-05 22:00:00 10.8 4 Sudoeste 13 Sudoeste 2.6 921.6 1.6 90
2020-04-05 21:00:00 11.3 0 Calma 11 Noroeste 2.2 920.8 1.1 88
2020-04-05 20:00:00 12 0 Calma 11 Oeste 1 920.2 0 86
2020-04-05 19:00:00 13.1 4 Oeste 21 Sudoeste 0.4 920 0.1 81
2020-04-05 18:00:00 14.2 6 Sudoeste 21 Sudoeste 0.4 919.7 -0.4 78
2020-04-05 17:00:00 14.8 4 Oeste 29 Sudoeste 0.6 920.2 -0.1 71
2020-04-05 16:00:00 16.8 11 Sudoeste 34 Sudoeste 0 919.9 -0.9 55
2020-04-05 15:00:00 17.4 15 Sudoeste 36 Sur 0 920.1 -1 48
2020-04-05 14:00:00 17.1 11 Sur 30 Sur 0 920.3 -0.7 49
2020-04-05 13:00:00 15.5 14 Sudoeste 28 Sur 0 920.8 0.1 53
2020-04-05 12:00:00 14.4 15 Sudoeste 31 Sudoeste 0 921.1 0.5 57
2020-04-05 11:00:00 13.6 10 Sur 27 Sur 0 921 0.6 57
2020-04-05 10:00:00 12.7 13 Sudoeste 28 Sudoeste 0 920.7 0.7 64
2020-04-05 09:00:00 8.9 6 Sudoeste 12 Sudoeste 0 920.6 0.7 77
2020-04-05 08:00:00 8.7 5 Sudoeste 14 Sur 0 920.4 0.5 77
2020-04-05 07:00:00 8.1 6 Sudoeste 11 Sudoeste 0 920 0.2 80
2020-04-05 06:00:00 7.5 4 Sur 9 Sudoeste 0 919.9 0 80
2020-04-05 05:00:00 6.5 0 Calma 17 Este 0 919.9 -0.1 83
2020-04-05 04:00:00 5.9 2 Este 4 Este 0 919.8 -0.2 84
2020-04-05 03:00:00 5.1 0 Calma 4 Este 0 919.9 0.2 81
2020-04-05 02:00:00 5.9 0 Calma 10 Sur 0 920 0.3 77
2020-04-05 01:00:00 7.9 4 Sudoeste 14 Sur 0 920 0.5 66
2020-04-05 00:00:00 9.6 5 Sur 15 Este 0 919.7 0.7 59
2020-04-04 23:00:00 11 5 Sur 17 Sur 0 919.7 1.2 54
2020-04-04 22:00:00 12.2 7 Sur 23 Sur 0 919.5 1.3 50
2020-04-04 21:00:00 13.2 9 Sudoeste 23 Sudoeste 0 919 0.6 49
2020-04-04 20:00:00 16.3 4 Sudeste 12 Sudoeste 0 918.5 -0.2 34
2020-04-04 19:00:00 17.3 7 Sur 17 Sudoeste 0 918.2 -0.9 33
2020-04-04 18:00:00 17.7 5 Sudoeste 21 Sudoeste 0 918.4 -1.3 29
2020-04-04 17:00:00 18.1 8 Sur 23 Sur 0 918.7 -1.5 28
2020-04-04 16:00:00 18.8 10 Sur 30 Sur 0 919.1 -1.9 28
2020-04-04 15:00:00 17.7 8 Sur 27 Sur 0 919.7 -1.7 31
2020-04-04 14:00:00 15.8 9 Sudeste 22 Sudeste 0 920.2 -1.3 37
2020-04-04 13:00:00 14.5 5 Nordeste 16 Sudeste 0 921 -0.3 46
2020-04-04 12:00:00 12.4 7 Este 22 Este 0 921.4 0.3 53
2020-04-04 11:00:00 9.7 8 Este 17 Sudeste 0 921.5 0.5 60
2020-04-04 10:00:00 6.4 7 Nordeste 15 Nordeste 0 921.3 0.4 76
2020-04-04 09:00:00 1 2 Nordeste 8 Nordeste 0 921.1 0.3 100
2020-04-04 08:00:00 -0.3 0 Calma 16 Nordeste 0 921 -0.1 --
2020-04-04 07:00:00 -1 5 Norte 17 Nordeste 0 920.9 -0.4 --
2020-04-04 06:00:00 -1.4 0 Calma 15 Nordeste 0 920.8 -0.8 100
2020-04-04 05:00:00 -1.4 0 Calma 15 Norte 0 921.1 -0.6 96
2020-04-04 04:00:00 -0.7 0 Calma 16 Nordeste 0 921.3 -0.5 96
2020-04-04 03:00:00 0.3 2 Nordeste 16 Nordeste 0 921.6 -0.4 93
2020-04-04 02:00:00 0.8 0 Calma 4 Norte 0 921.7 -0.3 90
2020-04-04 01:00:00 1.8 3 Norte 14 Nordeste 0 921.8 0.3 90
2020-04-04 00:00:00 2.6 0 Calma 15 Norte 0 922 0.9 87
2020-04-03 23:00:00 4 2 Noroeste 15 Nordeste 0 922 0.9 82
2020-04-03 22:00:00 6.1 3 Norte 15 Nordeste 0 921.5 0.4 77
2020-04-03 21:00:00 8.9 0 Calma 13 Sudeste 0 921.1 0.1 63
2020-04-03 20:00:00 11.6 4 Sudeste 10 Sudeste 0 921.1 -0.3 49
2020-04-03 19:00:00 13.7 3 Sur 12 Este 0 921.1 -0.9 40
2020-04-03 18:00:00 14.5 5 Sudoeste 16 Sudoeste 0 921 -1.6 41
2020-04-03 17:00:00 13.6 3 Este 13 Sur 0 921.4 -1.9 44
2020-04-03 16:00:00 12.8 5 Sur 14 Sudoeste 0 922 -1.5 47
2020-04-03 15:00:00 10.8 4 Noroeste 14 Oeste 0 922.6 -1.2 54
2020-04-03 14:00:00 9.9 4 Sur 16 Noroeste 0 923.3 -0.5 60
2020-04-03 13:00:00 8.3 4 Norte 15 Norte 0 923.5 0 64
2020-04-03 12:00:00 6.4 5 Nordeste 17 Nordeste 0 923.8 0.6 66
2020-04-03 11:00:00 5.3 5 Nordeste 15 Nordeste 0 923.8 1 71
2020-04-03 10:00:00 3.5 4 Nordeste 9 Este 0 923.5 1 87
2020-04-03 09:00:00 -0.8 4 Norte 15 Norte 0 923.2 0.7 --
2020-04-03 08:00:00 -2.4 0 Calma 13 Nordeste 0 922.8 0.2 --
2020-04-03 07:00:00 -1.6 4 Norte 16 Norte 0 922.5 -0.1 --
2020-04-03 06:00:00 -1.6 0 Calma 15 Norte 0 922.5 -0.4 --
2020-04-03 05:00:00 -1.2 3 Oeste 17 Nordeste 0 922.6 -0.4 100
2020-04-03 04:00:00 -1.2 2 Noroeste 17 Nordeste 0 922.6 -0.3 97
2020-04-03 03:00:00 -0.1 3 Noroeste 15 Norte 0 922.9 0.4 98
2020-04-03 02:00:00 0.8 2 Noroeste 6 Sudeste 0 923 0.6 89
2020-04-03 01:00:00 2 0 Calma 17 Este 0 922.9 1.1 85
2020-04-03 00:00:00 3.1 6 Nordeste 18 Este 0 922.5 1.4 84
2020-04-02 23:00:00 4.2 9 Nordeste 22 Este 0 922.4 1.9 81
2020-04-02 22:00:00 5 10 Este 20 Nordeste 0 921.8 1.8 78
2020-04-02 21:00:00 7 9 Nordeste 26 Nordeste 0 921.1 1.4 70
2020-04-02 20:00:00 9.5 14 Nordeste 33 Nordeste 0 920.5 1 59
2020-04-02 19:00:00 11.5 15 Nordeste 34 Nordeste 0 920 0.5 50
2020-04-02 18:00:00 12.7 15 Nordeste 32 Nordeste 0 919.7 -0.3 49
2020-04-02 17:00:00 12.2 16 Nordeste 38 Nordeste 0 919.5 -0.5 51
2020-04-02 16:00:00 12.6 15 Nordeste 38 Nordeste 0 919.5 -0.5 47
2020-04-02 15:00:00 10.7 13 Nordeste 37 Nordeste 0 920 0.1 67
2020-04-02 14:00:00 10.3 13 Nordeste 35 Nordeste 0 920 0.6 74
2020-04-02 13:00:00 10.7 12 Nordeste 31 Nordeste 0 920 1.2 67
2020-04-02 12:00:00 9.5 15 Nordeste 37 Norte 0 919.9 1.6 71
2020-04-02 11:00:00 8.9 17 Nordeste 34 Norte 0 919.4 1.9 75
2020-04-02 10:00:00 7.9 17 Norte 31 Nordeste 0 918.8 1.3 83
2020-04-02 09:00:00 6.6 6 Este 26 Nordeste 0 918.3 0.8 90
2020-04-02 08:00:00 6.8 7 Nordeste 19 Nordeste 0 917.5 -0.2 91
2020-04-02 07:00:00 6.3 5 Nordeste 21 Nordeste 0 917.5 -0.3 99
2020-04-02 06:00:00 6.4 5 Nordeste 14 Nordeste 0.8 917.5 -0.5 99
2020-04-02 05:00:00 6.4 5 Nordeste 22 Nordeste 1.2 917.7 -0.4 99
2020-04-02 04:00:00 6.5 6 Nordeste 15 Nordeste 1.4 917.8 -0.3 99
2020-04-02 03:00:00 6.7 7 Nordeste 24 Nordeste 1.4 918 -0.3 98
2020-04-02 02:00:00 6.8 9 Norte 25 Norte 0 918.1 -0.1 89
2020-04-02 01:00:00 6.7 10 Norte 26 Norte 0 918.1 0.3 87
2020-04-02 00:00:00 6.8 9 Norte 24 Nordeste 0 918.3 0.9 86
2020-04-01 23:00:00 7.1 9 Norte 27 Nordeste 0 918.2 1.1 84
2020-04-01 22:00:00 6.8 5 Norte 18 Norte 0 917.8 1.4 86
2020-04-01 21:00:00 7.4 0 Calma 21 Sudoeste 0 917.4 1.4 79
2020-04-01 20:00:00 8.1 11 Sudoeste 40 Este 0 917.1 1.2 73
2020-04-01 19:00:00 11.5 11 Este 25 Este 0 916.4 0.2 62
2020-04-01 18:00:00 12.6 10 Este 27 Nordeste 0 916 -0.5 57
2020-04-01 17:00:00 12.3 12 Este 26 Este 0 915.9 -1.2 58
2020-04-01 16:00:00 12.4 9 Nordeste 26 Este 0 916.2 -1.1 58
2020-04-01 15:00:00 13.2 8 Nordeste 18 Norte 0 916.5 -1 58
2020-04-01 14:00:00 11.2 7 Este 20 Norte 0 917.1 -0.5 66
2020-04-01 13:00:00 11.4 8 Nordeste 19 Nordeste 0 917.3 0.3 64
2020-04-01 12:00:00 9.7 7 Sudeste 20 Este 0 917.5 0.9 74
2020-04-01 11:00:00 8.4 8 Sudeste 22 Este 0 917.6 1.4 79
2020-04-01 10:00:00 7.8 6 Este 18 Nordeste 0 917 1.1 85
2020-04-01 09:00:00 5.1 6 Nordeste 19 Este 0 916.6 0.8 98
2020-04-01 08:00:00 4.8 5 Nordeste 15 Nordeste 0 916.2 0.4 98
2020-04-01 07:00:00 4.8 7 Nordeste 17 Este 0 915.9 0.2 97
2020-04-01 06:00:00 4.9 7 Nordeste 19 Este 0 915.8 0.1 94
2020-04-01 05:00:00 4.9 9 Este 20 Nordeste 0 915.8 0.3 93
2020-04-01 04:00:00 5 10 Este 29 Este 0 915.7 0.1 90
2020-04-01 03:00:00 4.9 11 Este 25 Nordeste 0.2 915.7 0 94
2020-04-01 02:00:00 4.6 10 Nordeste 28 Este 0.2 915.5 0 89
2020-04-01 01:00:00 4.5 12 Nordeste 32 Nordeste 0 915.6 0.7 87
2020-04-01 00:00:00 4.6 11 Nordeste 27 Este 0 915.7 1.3 86
2020-03-31 23:00:00 4.5 12 Nordeste 31 Nordeste 0 915.5 1.4 85
2020-03-31 22:00:00 4.7 13 Nordeste 33 Este 0 914.9 1.3 86
2020-03-31 21:00:00 5.1 13 Nordeste 31 Nordeste 0 914.4 1.1 86
2020-03-31 20:00:00 5.7 16 Este 36 Este 0 914.1 0.9 84
2020-03-31 19:00:00 6.3 18 Este 42 Este 0 913.6 0.3 77
2020-03-31 18:00:00 6.8 19 Nordeste 51 Este 0 913.3 -0.4 71
2020-03-31 17:00:00 6.2 17 Nordeste 44 Este 0 913.2 -0.5 73
2020-03-31 16:00:00 5.7 20 Nordeste 46 Este 0 913.3 -0.7 73
2020-03-31 15:00:00 5.6 18 Nordeste 50 Este 0 913.7 -0.4 69
2020-03-31 14:00:00 6.5 23 Este 55 Nordeste 0 913.7 -0.4 62
2020-03-31 13:00:00 4.5 20 Nordeste 51 Este 0 914 -0.1 66
2020-03-31 12:00:00 4.3 19 Nordeste 49 Este 0 914.1 0.1 65
2020-03-31 11:00:00 3 19 Este 47 Este 0 914.1 -0.1 65
2020-03-31 10:00:00 1.6 22 Este 50 Este 0 914.1 -0.4 68
2020-03-31 09:00:00 0.4 19 Nordeste 42 Nordeste 0 914 -0.9 71
2020-03-31 08:00:00 -0.4 17 Nordeste 45 Nordeste 0 914.2 -1.1 73
2020-03-31 07:00:00 -0.1 14 Nordeste 33 Este 0 914.5 -1.2 73
2020-03-31 06:00:00 -0.3 13 Nordeste 27 Nordeste 0 914.9 -2.2 76
2020-03-31 05:00:00 -0.8 10 Nordeste 28 Nordeste 0 915.3 -2.5 79
2020-03-31 04:00:00 -1 12 Nordeste 30 Nordeste 0 915.7 -2.4 78
2020-03-31 03:00:00 -0.2 10 Nordeste 28 Nordeste 0 917.1 -1.8 75
2020-03-31 02:00:00 -0.1 12 Nordeste 30 Norte 0 917.8 -1.5 77
2020-03-31 01:00:00 0.2 12 Nordeste 31 Nordeste 0 918.1 -1.6 74
2020-03-31 00:00:00 0.1 14 Nordeste 32 Nordeste 0 918.9 -0.2 73
2020-03-30 23:00:00 -0.5 10 Nordeste 24 Nordeste 0 919.3 0 73
2020-03-30 22:00:00 0.2 11 Nordeste 31 Este 0 919.7 0.2 67
2020-03-30 21:00:00 0.7 12 Nordeste 39 Nordeste 0 919.1 -0.3 63
2020-03-30 20:00:00 2.2 18 Nordeste 42 Nordeste 0 919.3 -0.3 57
2020-03-30 19:00:00 3.8 21 Nordeste 48 Nordeste 0 919.5 -0.6 50
2020-03-30 18:00:00 5.1 19 Nordeste 43 Nordeste 0 919.4 -1.9 45
2020-03-30 17:00:00 5.9 15 Nordeste 47 Nordeste 0 919.6 -2.1 42
2020-03-30 16:00:00 5.7 16 Nordeste 45 Norte 0 920.1 -1.9 43
2020-03-30 15:00:00 4.4 21 Nordeste 44 Nordeste 0 921.3 -1.4 43
2020-03-30 14:00:00 4.5 17 Nordeste 48 Norte 0 921.7 -1.3 51
2020-03-30 13:00:00 4.6 21 Nordeste 53 Nordeste 0 922 -0.7 50
2020-03-30 12:00:00 2 19 Nordeste 49 Nordeste 0 922.7 -0.3 57
2020-03-30 11:00:00 1.7 22 Nordeste 49 Nordeste 0 923 0.4 62
2020-03-30 10:00:00 1.2 17 Nordeste 37 Norte 0 922.7 0.1 71
2020-03-30 09:00:00 1.1 15 Nordeste 42 Nordeste 0 923 0.3 69
2020-03-30 08:00:00 1.2 15 Nordeste 37 Nordeste 0 922.6 -0.6 70
2020-03-30 07:00:00 1.4 15 Nordeste 41 Nordeste 0 922.6 -0.5 67
2020-03-30 06:00:00 1.6 21 Nordeste 54 Nordeste 0 922.7 -0.6 68
2020-03-30 05:00:00 2 23 Nordeste 60 Nordeste 0 923.2 -0.7 68
2020-03-30 04:00:00 2.6 23 Nordeste 56 Nordeste 0 923.1 -0.9 70
2020-03-30 03:00:00 3 21 Nordeste 54 Nordeste 0 923.3 -0.8 73
2020-03-30 02:00:00 3.3 23 Nordeste 49 Nordeste 0 923.9 -0.2 71
2020-03-30 01:00:00 3.8 22 Nordeste 46 Nordeste 0 924 0 72
2020-03-30 00:00:00 4.6 19 Nordeste 49 Nordeste 0 924.1 0.5 72
2020-03-29 23:00:00 4.9 15 Nordeste 43 Nordeste 0 924.1 0.6 76
2020-03-29 22:00:00 6.1 18 Nordeste 42 Este 0 924 1.3 73
2020-03-29 21:00:00 6.9 17 Nordeste 41 Nordeste 0 923.6 1.1 71
2020-03-29 20:00:00 8.4 20 Nordeste 45 Nordeste 0 923.5 1 63
2020-03-29 19:00:00 11.8 18 Nordeste 40 Este 0 922.7 0 45
2020-03-29 18:00:00 13.6 16 Este 35 Este 0 922.5 -1 36
2020-03-29 17:00:00 15.2 11 Este 33 Este 0 922.5 -1.5 33
2020-03-29 16:00:00 15.4 10 Este 26 Este 0 922.7 -1.8 36
2020-03-29 15:00:00 15.2 6 Este 22 Nordeste 0 923.5 -1.2 34
2020-03-29 14:00:00 14.3 8 Este 23 Este 0 924 -0.8 38
2020-03-29 13:00:00 13.1 7 Este 20 Nordeste 0 924.5 -0.3 41
2020-03-29 12:00:00 11.4 8 Este 26 Este 0 924.7 -0.2 43
2020-03-29 11:00:00 8.9 9 Nordeste 20 Nordeste 0 924.8 0.5 52
2020-03-29 10:00:00 6.8 7 Nordeste 18 Nordeste 0 924.8 0.8 66
2020-03-29 09:00:00 2.9 7 Norte 25 Nordeste 0 924.9 0.9 76
2020-03-29 08:00:00 0.9 6 Nordeste 19 Nordeste 0 924.3 0.3 85
2020-03-29 07:00:00 1 4 Nordeste 18 Nordeste 0 924 -0.2 86
2020-03-29 06:00:00 1.7 4 Nordeste 20 Nordeste 0 924 -0.6 85
2020-03-29 05:00:00 1 0 Calma 12 Nordeste 0 924 -0.6 84
2020-03-29 03:00:00 3.2 2 Este 15 Nordeste 0 924.6 0.1 80
2020-03-29 01:00:00 4.2 7 Nordeste 16 Nordeste 0 924.6 0.2 78
2020-03-29 00:00:00 4.9 6 Nordeste 18 Nordeste 0 924.7 1 78
2020-03-28 23:00:00 5.7 6 Nordeste 16 Norte 0 924.5 1.6 75
2020-03-28 22:00:00 7 7 Nordeste 22 Nordeste 0 924.4 1.9 68
2020-03-28 21:00:00 6.7 2 Norte 4 Noroeste 0 923.7 1.5 68
2020-03-28 20:00:00 9.7 2 Norte 5 Sur 0 922.9 0.9 56
2020-03-28 19:00:00 12.9 4 Sudeste 15 Este 0 922.5 0.3 34
2020-03-28 18:00:00 14.7 6 Sudeste 14 Sudeste 0 922.2 -0.5 29
2020-03-28 17:00:00 15.6 5 Sudeste 15 Sudeste 0 922 -1 27
2020-03-28 16:00:00 15.5 4 Sudoeste 15 Sudeste 0 922.2 -1.1 28
2020-03-28 15:00:00 15.3 6 Este 15 Este 0 922.7 -1 27
2020-03-28 14:00:00 14.5 5 Este 16 Este 0 923 -0.9 30
2020-03-28 13:00:00 13 5 Este 15 Este 0 923.3 -0.6 32
2020-03-28 12:00:00 12 4 Nordeste 12 Sudeste 0 923.7 0.3 38
2020-03-28 11:00:00 10.3 5 Sudeste 12 Sudeste 0 923.9 1 45
2020-03-28 10:00:00 8 4 Este 17 Este 0 923.9 1.5 51
2020-03-28 09:00:00 4.5 4 Nordeste 11 Este 0 923.4 1.6 75
2020-03-28 08:00:00 -0.7 0 Calma 7 Nordeste 0 922.9 1.4 91
2020-03-28 07:00:00 -1.6 3 Nordeste 15 Nordeste 0 922.4 1 89
2020-03-28 06:00:00 -1.4 2 Nordeste 9 Nordeste 0 921.8 0.4 88
2020-03-28 05:00:00 -0.7 3 Este 16 Este 0 921.5 0.2 87
2020-03-28 04:00:00 -0.2 0 Calma 15 Este 0 921.4 0.5 86
2020-03-28 03:00:00 0.5 3 Nordeste 8 Nordeste 0 921.4 0.5 82
2020-03-28 02:00:00 2.5 4 Norte 19 Nordeste 0 921.3 0.7 77
2020-03-28 01:00:00 2.8 7 Nordeste 19 Nordeste 0 920.9 0.6 76
2020-03-28 00:00:00 3.7 9 Nordeste 23 Nordeste 0 920.9 1.3 72
2020-03-27 23:00:00 3.5 9 Nordeste 17 Nordeste 0 920.6 2 72
2020-03-27 22:00:00 3.6 6 Nordeste 16 Nordeste 0 920.3 2.2 59
2020-03-27 21:00:00 4.6 4 Nordeste 10 Nordeste 0 919.6 1.9 57
2020-03-27 20:00:00 7.4 0 Calma 7 Nordeste 0 918.6 1.2 55
2020-03-27 19:00:00 10.2 5 Este 18 Este 0 918.1 0.6 36
2020-03-27 18:00:00 11.6 5 Este 18 Este 0 917.7 -0.1 30
2020-03-27 17:00:00 12.6 9 Sudeste 27 Sudeste 0 917.4 -0.7 28
2020-03-27 16:00:00 12.5 10 Este 33 Este 0 917.5 -1.1 30
2020-03-27 15:00:00 12 9 Este 30 Sudeste 0 917.8 -1.2 33
2020-03-27 14:00:00 10.7 13 Este 31 Este 0 918.1 -1.1 36
2020-03-27 13:00:00 9.7 12 Este 32 Nordeste 0 918.6 -0.5 38
2020-03-27 12:00:00 8.1 13 Este 32 Este 0 919 0.5 40
2020-03-27 11:00:00 6.5 16 Este 38 Este 0 919.2 1.1 52
2020-03-27 10:00:00 4.6 17 Este 39 Nordeste 0 919.1 1.1 58
2020-03-27 09:00:00 2.3 11 Nordeste 25 Nordeste 0 918.5 0.7 72
2020-03-27 08:00:00 -0.6 10 Nordeste 30 Nordeste 0 918.1 0.5 84
2020-03-27 07:00:00 -1.2 8 Nordeste 22 Nordeste 0 918 0.5 85
2020-03-27 06:00:00 -1.3 6 Nordeste 17 Nordeste 0 917.8 0.2 83
2020-03-27 05:00:00 -0.9 5 Nordeste 18 Este 0 917.6 -0.2 83
2020-03-27 04:00:00 -0.7 4 Nordeste 29 Nordeste 0 917.5 -0.1 78
2020-03-27 03:00:00 -0.6 5 Este 23 Nordeste 0 917.6 0 79
2020-03-27 02:00:00 0.2 7 Este 23 Sudeste 0 917.8 0.3 78
2020-03-27 01:00:00 0.7 6 Este 19 Este 0 917.6 0.3 75
2020-03-27 00:00:00 1.9 5 Nordeste 21 Nordeste 0 917.6 0.8 71
2020-03-26 23:00:00 3.3 10 Nordeste 24 Este 0 917.5 1.1 69
2020-03-26 22:00:00 4.4 10 Nordeste 26 Nordeste 0 917.3 1.4 70
2020-03-26 21:00:00 4.8 14 Este 30 Este 0 916.8 1.3 69
2020-03-26 20:00:00 6.3 10 Este 23 Sudeste 0 916.4 1.1 57
2020-03-26 19:00:00 7.9 13 Este 30 Este 0 915.9 0.4 52
2020-03-26 18:00:00 10 16 Este 31 Sudeste 0 915.5 -0.3 45
2020-03-26 17:00:00 11.5 9 Este 28 Este 0 915.3 -1.2 43
2020-03-26 16:00:00 12.2 8 Este 17 Sudeste 0 915.5 -1.6 37
2020-03-26 15:00:00 13.1 5 Sudeste 15 Este 0 915.8 -1.8 31
2020-03-26 14:00:00 11.9 3 Sudeste 17 Noroeste 0 916.5 -1.5 32
2020-03-26 13:00:00 10.5 4 Nordeste 17 Noroeste 0 917.1 -1 32
2020-03-26 12:00:00 9.6 4 Oeste 17 Noroeste 0 917.6 -0.7 30
2020-03-26 11:00:00 8 5 Este 15 Este 0 918 -0.2 43
2020-03-26 10:00:00 5.2 4 Norte 15 Norte 0 918.1 0.1 62
2020-03-26 09:00:00 1.5 4 Oeste 8 Noroeste 0 918.3 0.1 84
2020-03-26 08:00:00 -2.5 2 Oeste 14 Nordeste 0 918.2 -0.2 100
2020-03-26 07:00:00 -2.8 3 Norte 15 Nordeste 0 918 -0.5 98
2020-03-26 06:00:00 -2 5 Norte 18 Nordeste 0 918.2 -0.8 100
2020-03-26 05:00:00 -1.7 2 Noroeste 4 Noroeste 0 918.4 -0.6 100
2020-03-26 04:00:00 -1.5 2 Noroeste 14 Nordeste 0 918.5 -0.6 91
2020-03-26 03:00:00 -0.8 2 Noroeste 13 Norte 0 919 0.1 90
2020-03-26 02:00:00 -0.1 0 Calma 10 Sudeste 0 919 -0.1 84
2020-03-26 01:00:00 0.9 3 Este 15 Nordeste 0 919.1 0 79
2020-03-26 00:00:00 2 3 Este 6 Este 0 918.9 0 77
2020-03-25 23:00:00 3.2 3 Sur 11 Sudeste 0 919.1 0.7 77
2020-03-25 22:00:00 5.2 2 Nordeste 9 Sur 0 919.1 1 65
2020-03-25 21:00:00 6.9 3 Noroeste 19 Oeste 0 918.9 1 61
2020-03-25 20:00:00 9.9 4 Este 15 Nordeste 0 918.4 0.4 54
2020-03-25 19:00:00 13.2 9 Nordeste 20 Nordeste 0 918.1 -0.3 32
2020-03-25 18:00:00 16.3 7 Este 19 Este 0 917.9 -1.2 26
2020-03-25 17:00:00 16.8 8 Norte 14 Norte 0 918 -1.8 25
2020-03-25 16:00:00 18.2 4 Sur 13 Norte 0 918.4 -2 29
2020-03-25 15:00:00 16.6 6 Sudeste 19 Sudeste 0 919.1 -1.6 28
2020-03-25 14:00:00 15.7 6 Nordeste 17 Este 0 919.8 -1.1 33
2020-03-25 13:00:00 14.7 7 Nordeste 17 Nordeste 0 920.4 -0.5 42
2020-03-25 12:00:00 13.4 4 Sudeste 13 Sudeste 0 920.7 -0.2 59
2020-03-25 11:00:00 12 4 Sudeste 12 Sur 0 920.9 -0.1 68
2020-03-25 10:00:00 9.5 4 Este 8 Este 0 920.9 0 75
2020-03-25 09:00:00 5.4 0 Calma 3 Sudeste 0 920.9 0 100
2020-03-25 08:00:00 1 0 Calma 4 Oeste 0 921 0 100
2020-03-25 07:00:00 0.4 0 Calma 4 Noroeste 0 920.9 -0.6 99
2020-03-25 06:00:00 1.1 0 Calma 13 Nordeste 0 920.9 -0.9 98
2020-03-25 05:00:00 2.2 3 Oeste 6 Noroeste 0 921 -1 98
2020-03-25 04:00:00 2.7 0 Calma 16 Nordeste 0 921.5 -0.5 98
2020-03-25 03:00:00 2.6 2 Nordeste 7 Noroeste 0 921.8 -0.3 90
2020-03-25 02:00:00 3.4 3 Noroeste 17 Oeste 0 922 -0.1 88
2020-03-25 01:00:00 3.7 3 Nordeste 9 Nordeste 0 922 0.5 86
2020-03-25 00:00:00 4.6 2 Nordeste 15 Nordeste 0 922.1 0.4 83
2020-03-24 23:00:00 5.8 3 Nordeste 13 Este 0 922.1 0.6 79
2020-03-24 22:00:00 8.2 6 Este 21 Este 0 921.5 0.2 70
2020-03-24 21:00:00 8.2 5 Este 19 Sudeste 0 921.7 0.7 68
2020-03-24 20:00:00 10.1 8 Sudeste 20 Este 0 921.5 0.6 62
2020-03-24 19:00:00 12.6 8 Este 26 Este 0 921.3 0.3 56
2020-03-24 18:00:00 14.6 12 Este 31 Este 0 921 -0.6 45
2020-03-24 17:00:00 15.6 13 Este 26 Nordeste 0 920.9 -1.3 44
2020-03-24 16:00:00 16.2 9 Este 26 Nordeste 0 921 -1.7 39
2020-03-24 15:00:00 15.1 9 Este 24 Nordeste 0 921.6 -1.6 45
2020-03-24 14:00:00 15.1 8 Este 28 Este 0 922.2 -1.4 51
2020-03-24 13:00:00 14 10 Este 21 Este 0 922.7 -1.1 57
2020-03-24 12:00:00 12.8 9 Este 26 Este 0 923.2 -0.6 62
2020-03-24 11:00:00 11.8 9 Nordeste 28 Este 0 923.6 0.2 68
2020-03-24 10:00:00 9.9 14 Este 29 Este 0 923.8 0.8 77
2020-03-24 09:00:00 7.7 10 Nordeste 21 Nordeste 0 923.8 0.9 86
2020-03-24 08:00:00 5 7 Nordeste 18 Nordeste 0 923.4 0.5 98
2020-03-24 07:00:00 4.9 8 Nordeste 22 Nordeste 0 923 0.1 94
2020-03-24 06:00:00 5.2 8 Nordeste 21 Nordeste 0 922.9 0.2 92
2020-03-24 05:00:00 5 7 Nordeste 14 Nordeste 0 922.9 -0.1 98
2020-03-24 04:00:00 4.9 6 Nordeste 17 Nordeste 0 922.9 0 97
2020-03-24 03:00:00 5.5 9 Nordeste 23 Nordeste 0 922.7 -0.2 96
2020-03-24 02:00:00 6 8 Nordeste 19 Nordeste 0 923 0.3 93
2020-03-24 01:00:00 6.3 8 Este 17 Nordeste 0 922.9 0.6 88
2020-03-24 00:00:00 7.2 8 Nordeste 16 Nordeste 0 922.9 0.7 86
2020-03-23 23:00:00 7.9 7 Nordeste 16 Este 0 922.7 1.3 84
2020-03-23 22:00:00 8.7 5 Nordeste 24 Este 0.2 922.3 1.4 82
2020-03-23 21:00:00 9.5 13 Este 33 Sudeste 0 922.2 1.7 77
2020-03-23 20:00:00 11.3 9 Este 23 Sudeste 0 921.4 1.2 65
2020-03-23 19:00:00 12.8 8 Este 26 Este 0 920.9 0.5 59
2020-03-23 18:00:00 13 8 Sudeste 26 Este 0 920.5 -0.3 60
2020-03-23 17:00:00 15.4 4 Este 26 Este 0 920.2 -1.2 49
2020-03-23 16:00:00 15.3 10 Este 29 Este 0 920.4 -1.6 49
2020-03-23 15:00:00 14.6 10 Este 27 Este 0 920.8 -1.5 52
2020-03-23 14:00:00 14.9 8 Este 23 Sudeste 0 921.4 -1.2 50
2020-03-23 13:00:00 13 10 Este 28 Nordeste 0 922 -0.5 59
2020-03-23 12:00:00 12.3 14 Nordeste 30 Este 0 922.3 0.2 63
2020-03-23 11:00:00 10.9 13 Este 30 Este 0 922.6 0.7 71
2020-03-23 10:00:00 9.5 13 Nordeste 29 Nordeste 0 922.5 1.2 75
2020-03-23 09:00:00 6.9 10 Nordeste 27 Nordeste 0 922.1 1.1 83
2020-03-23 08:00:00 4.9 12 Nordeste 22 Norte 0 921.9 1.3 86
2020-03-23 07:00:00 4.2 8 Nordeste 21 Nordeste 0 921.3 0.8 87
2020-03-23 06:00:00 4.7 11 Nordeste 22 Norte 0 921 0.2 86
2020-03-23 05:00:00 4.3 7 Nordeste 26 Nordeste 0 920.6 -0.1 88
2020-03-23 04:00:00 4.8 9 Norte 22 Nordeste 0 920.5 -0.1 88
2020-03-23 03:00:00 4.6 5 Nordeste 20 Este 0 920.8 0 87
2020-03-23 02:00:00 5.1 7 Nordeste 23 Norte 0 920.7 0.3 87
2020-03-23 01:00:00 5.7 9 Nordeste 18 Norte 0 920.6 0.6 85
2020-03-23 00:00:00 6.5 8 Nordeste 23 Nordeste 0 920.8 1.2 82
2020-03-22 23:00:00 7.2 14 Norte 27 Nordeste 0 920.4 1.6 79
2020-03-22 22:00:00 7.7 10 Nordeste 26 Nordeste 0 920 2 79
2020-03-22 21:00:00 8.9 10 Nordeste 21 Nordeste 0 919.6 2.3 74
2020-03-22 20:00:00 10.6 5 Este 17 Nordeste 0 918.8 2 69
2020-03-22 19:00:00 12.1 6 Sudeste 26 Este 0 918 1.3 65
2020-03-22 18:00:00 13.4 13 Nordeste 41 Nordeste 0.6 917.3 0.3 62
2020-03-22 17:00:00 15.1 12 Nordeste 35 Nordeste 0 916.8 -0.5 45
2020-03-22 16:00:00 16 13 Este 32 Sudeste 0 916.7 -1.2 42
2020-03-22 15:00:00 15.8 10 Nordeste 26 Este 0 917 -1.1 43
2020-03-22 14:00:00 16.4 11 Este 26 Nordeste 0 917.3 -1 44
2020-03-22 13:00:00 15.4 9 Este 21 Este 0 917.9 -0.3 52
2020-03-22 12:00:00 12.9 6 Este 22 Este 0 918.1 0.3 63
2020-03-22 11:00:00 11.7 8 Nordeste 18 Este 0 918.3 0.9 72
2020-03-22 10:00:00 8.6 6 Este 20 Este 0 918.2 1.4 87
2020-03-22 09:00:00 6.8 4 Este 18 Nordeste 0 917.8 1 100
2020-03-22 08:00:00 6.6 7 Norte 17 Nordeste 0 917.4 0.6 99
2020-03-22 07:00:00 7.1 4 Norte 12 Oeste 0 916.8 0 93
2020-03-22 06:00:00 7.9 4 Noroeste 7 Sudoeste 0 916.8 -0.2 89
2020-03-22 05:00:00 7.9 3 Sudoeste 6 Noroeste 0 916.8 -0.3 88
2020-03-22 04:00:00 7.9 0 Calma 9 Sudoeste 0 916.8 -0.4 88
2020-03-22 03:00:00 8.1 3 Oeste 8 Sudoeste 0 917 -0.2 89
2020-03-22 02:00:00 8 3 Sudoeste 7 Sur 0 917.1 0.3 89
2020-03-22 01:00:00 7.9 3 Sudoeste 8 Sur 0 917.2 0.6 87
2020-03-22 00:00:00 8.1 3 Sur 11 Sur 0 917.2 0.9 87
2020-03-21 23:00:00 8 3 Oeste 7 Sur 0 916.8 1.2 85
2020-03-21 22:00:00 9.2 4 Sudoeste 11 Sur 0 916.6 1.7 80
2020-03-21 21:00:00 10.3 3 Sur 23 Sur 0 916.3 1.6 77
2020-03-21 20:00:00 11.4 7 Sudeste 17 Este 0 915.6 0.8 72
2020-03-21 19:00:00 12.7 6 Nordeste 21 Este 0 914.9 -0.3 63
2020-03-21 18:00:00 14.1 8 Este 20 Este 0 914.7 -1 57
2020-03-21 17:00:00 14 5 Este 18 Este 0 914.8 -1.5 53
2020-03-21 16:00:00 14 8 Nordeste 23 Este 0 915.2 -1.6 59
2020-03-21 15:00:00 13.6 8 Nordeste 20 Este 0 915.7 -1.5 62
2020-03-21 14:00:00 12.8 8 Sudeste 23 Este 0 916.3 -1.1 65
2020-03-21 13:00:00 11.8 9 Este 24 Este 0 916.8 -0.6 71
2020-03-21 12:00:00 10.9 9 Este 29 Este 0 917.2 -0.1 72
2020-03-21 11:00:00 10.4 9 Este 27 Este 0 917.4 0 77
2020-03-21 10:00:00 9.3 10 Nordeste 27 Este 0 917.4 0 78
2020-03-21 09:00:00 7.2 8 Nordeste 17 Nordeste 0 917.3 -0.2 88
2020-03-21 08:00:00 4.8 9 Nordeste 18 Nordeste 0 917.4 -0.4 97
2020-03-21 07:00:00 4.7 10 Nordeste 19 Nordeste 0 917.4 -0.6 97
2020-03-21 06:00:00 5.3 7 Nordeste 20 Nordeste 0 917.5 -0.9 92
2020-03-21 05:00:00 5.8 7 Nordeste 19 Este 0 917.8 -0.7 91
2020-03-21 04:00:00 5 6 Nordeste 14 Este 0 918 -1 92
2020-03-21 03:00:00 5.5 5 Nordeste 13 Nordeste 0 918.4 -0.9 90
2020-03-21 02:00:00 5.9 6 Nordeste 16 Nordeste 0 918.5 -1.2 88
2020-03-21 01:00:00 5.9 4 Nordeste 9 Este 0 919 -0.6 88
2020-03-21 00:00:00 7.2 3 Este 9 Este 0 919.3 0 87
2020-03-20 23:00:00 8.6 3 Este 9 Sudeste 0 919.7 0.7 89
2020-03-20 22:00:00 9.7 6 Sudeste 18 Sudeste 0 919.6 0.9 85
2020-03-20 21:00:00 9.6 4 Este 18 Este 0 919.3 0.4 84
2020-03-20 20:00:00 11.1 5 Este 22 Sudeste 0 919 0 82
2020-03-20 19:00:00 13.7 4 Este 10 Este 0 918.7 -0.6 65
2020-03-20 18:00:00 14.7 4 Este 13 Sudeste 0 918.9 -0.8 56
2020-03-20 17:00:00 15.2 5 Este 15 Sudeste 0 919 -1 56
2020-03-20 16:00:00 14.8 5 Sudeste 22 Sudeste 0 919.3 -1.2 58
2020-03-20 15:00:00 14.7 7 Sudeste 18 Sudoeste 0 919.7 -1.2 57
2020-03-20 14:00:00 12.8 5 Nordeste 20 Nordeste 0 920 -1.1 68
2020-03-20 13:00:00 12.7 9 Este 21 Sudeste 0 920.5 -0.6 69
2020-03-20 12:00:00 11.9 8 Este 22 Sudeste 0 920.9 -0.1 71
2020-03-20 11:00:00 9.9 9 Este 21 Este 0 921.1 0.3 77
2020-03-20 10:00:00 8.2 8 Este 17 Este 0 921.1 0.4 86
2020-03-20 09:00:00 6.8 6 Nordeste 14 Este 0 921 0.3 90
2020-03-20 08:00:00 5.3 5 Nordeste 20 Nordeste 0 920.8 -0.1 89
2020-03-20 07:00:00 5.5 6 Nordeste 13 Nordeste 0 920.7 -0.1 89
2020-03-20 06:00:00 4.9 2 Norte 10 Nordeste 0 920.7 -0.5 88
2020-03-20 05:00:00 5.3 4 Nordeste 10 Nordeste 0 920.9 -0.4 87
2020-03-20 04:00:00 5.8 3 Nordeste 17 Este 0 920.8 -0.7 86
2020-03-20 03:00:00 6.6 4 Nordeste 15 Este 0 921.2 -0.6 83
2020-03-20 02:00:00 7 4 Este 12 Este 0 921.3 -0.7 86
2020-03-20 01:00:00 7 3 Este 14 Nordeste 0 921.5 -0.6 85
2020-03-20 00:00:00 7.9 5 Nordeste 15 Este 0 921.8 -0.4 88
2020-03-19 23:00:00 7.8 5 Nordeste 12 Nordeste 0 922 0 89
2020-03-19 22:00:00 7.9 4 Este 9 Este 0 922.1 0.1 81
2020-03-19 21:00:00 8.9 3 Este 7 Este 0 922.2 0.2 69
2020-03-19 20:00:00 11.2 3 Este 10 Sudeste 0 922 -0.4 56
2020-03-19 19:00:00 13.5 6 Sudeste 18 Sudeste 0 922 -0.9 36
2020-03-19 18:00:00 15.3 7 Sudeste 17 Este 0 922 -1.5 36
2020-03-19 17:00:00 16.1 4 Este 15 Este 0 922.4 -1.9 41
2020-03-19 16:00:00 16.1 8 Este 22 Este 0 922.9 -2.2 35
2020-03-19 15:00:00 16.1 12 Sudeste 21 Sudeste 0 923.5 -2.2 35
2020-03-19 14:00:00 15.7 8 Este 19 Sudeste 0 924.3 -1.9 43
2020-03-19 13:00:00 14.7 8 Sudeste 21 Sudeste 0 925.1 -1.4 49
2020-03-19 12:00:00 14.6 11 Sudeste 27 Este 0 925.7 -0.7 47
2020-03-19 11:00:00 13.3 6 Este 18 Sudeste 0 926.2 -0.1 63
2020-03-19 10:00:00 11.2 6 Este 13 Este 0 926.5 0.3 76
2020-03-19 09:00:00 8.1 3 Nordeste 12 Norte 0 926.4 0.3 88
2020-03-19 08:00:00 6 0 Calma 14 Este 0 926.3 0.1 89
2020-03-19 07:00:00 6.4 4 Nordeste 13 Nordeste 0 926.2 -0.3 89
2020-03-19 06:00:00 7 5 Nordeste 18 Este 0 926.1 -0.9 87
2020-03-19 05:00:00 7.3 6 Nordeste 15 Nordeste 0 926.2 -1.4 88
2020-03-19 04:00:00 7.3 5 Nordeste 12 Nordeste 0 926.5 -1.4 88
2020-03-19 03:00:00 7.6 4 Nordeste 14 Nordeste 0 927 -1.3 87
2020-03-19 02:00:00 7.8 5 Nordeste 13 Nordeste 0 927.6 -1 89
2020-03-19 01:00:00 7.1 3 Nordeste 8 Nordeste 0 927.9 -0.7 89
2020-03-19 00:00:00 7.7 0 Calma 6 Este 0 928.3 -0.1 88
2020-03-18 23:00:00 8.6 2 Este 6 Nordeste 0 928.6 0.5 87
2020-03-18 22:00:00 9.6 2 Este 7 Este 0 928.6 0.6 83
2020-03-18 21:00:00 10.8 3 Norte 8 Norte 0 928.4 0.4 80
2020-03-18 20:00:00 13 0 Calma 14 Nordeste 0 928.1 -0.1 71
2020-03-18 19:00:00 15.5 3 Norte 8 Norte 0 928 -0.7 66
2020-03-18 18:00:00 17.3 2 Nordeste 11 Norte 0 928 -1.2 53
2020-03-18 17:00:00 17.7 4 Norte 12 Este 0 928.2 -1.8 50
2020-03-18 16:00:00 17.3 5 Nordeste 14 Sudeste 0 928.7 -1.9 57
2020-03-18 15:00:00 16.3 5 Este 17 Sudeste 0 929.2 -1.9 56
2020-03-18 14:00:00 15.6 6 Sudeste 19 Nordeste 0 930 -1.7 61
2020-03-18 13:00:00 14.2 9 Este 18 Norte 0 930.6 -1.3 60
2020-03-18 12:00:00 12 8 Nordeste 17 Nordeste 0 931.1 -0.5 72
2020-03-18 11:00:00 8.8 5 Nordeste 15 Este 0 931.7 -0.3 87
2020-03-18 10:00:00 6.6 6 Nordeste 21 Nordeste 0 931.9 0.2 97
2020-03-18 09:00:00 4.9 3 Este 8 Este 0 931.6 -0.1 --
2020-03-18 08:00:00 3.7 3 Nordeste 9 Este 0 932 0.6 100
2020-03-18 07:00:00 3.2 0 Calma 6 Sudeste 0 931.7 0.1 99
2020-03-18 06:00:00 3.9 3 Nordeste 9 Nordeste 0 931.7 -0.2 98
2020-03-18 05:00:00 4.5 3 Nordeste 14 Nordeste 0 931.4 -0.8 89
2020-03-18 04:00:00 5.8 6 Norte 20 Nordeste 0 931.6 -1 91
2020-03-18 03:00:00 6.7 4 Nordeste 18 Nordeste 0 931.9 -0.9 88
2020-03-18 02:00:00 7 7 Nordeste 26 Nordeste 0 932.2 -0.9 89
2020-03-18 01:00:00 6.9 6 Nordeste 19 Nordeste 0 932.6 -0.4 94
2020-03-18 00:00:00 6.8 8 Nordeste 21 Nordeste 0 932.8 0.2 94
2020-03-17 23:00:00 6.8 6 Nordeste 17 Nordeste 0 933.1 1.3 89
2020-03-17 22:00:00 7.1 8 Nordeste 23 Nordeste 0 933 1.6 89
2020-03-17 21:00:00 7.7 8 Nordeste 26 Nordeste 0 932.6 1.4 86
2020-03-17 20:00:00 8.2 10 Nordeste 22 Nordeste 0 931.8 0.7 86
2020-03-17 19:00:00 9.7 7 Nordeste 31 Nordeste 0 931.4 0.8 81
2020-03-17 18:00:00 10.9 14 Nordeste 35 Este 0 931.2 0.5 76
2020-03-17 17:00:00 11.8 17 Nordeste 39 Este 0 931.1 0.3 73
2020-03-17 16:00:00 11.4 17 Este 33 Este 0 930.6 -0.4 73
2020-03-17 15:00:00 10.7 13 Este 41 Nordeste 0 930.7 -0.2 76
2020-03-17 14:00:00 10.9 18 Nordeste 41 Nordeste 0 930.8 0 74
2020-03-17 13:00:00 10.4 17 Nordeste 36 Este 0 931 0.4 75
2020-03-17 12:00:00 9.8 15 Nordeste 44 Este 0 930.9 1.1 76
2020-03-17 11:00:00 8.9 17 Este 44 Este 0 930.8 1.4 76
2020-03-17 10:00:00 8.3 15 Nordeste 41 Nordeste 0 930.6 1.7 77
2020-03-17 09:00:00 5.9 17 Nordeste 36 Nordeste 0 929.8 1.9 84
2020-03-17 08:00:00 4.6 12 Nordeste 35 Nordeste 0 929.4 2.3 85
2020-03-17 07:00:00 4.7 15 Nordeste 39 Nordeste 0 928.9 2.2 83
2020-03-17 06:00:00 4.6 17 Nordeste 42 Nordeste 0 927.9 1 82
2020-03-17 05:00:00 4.4 18 Nordeste 37 Nordeste 0 927.1 0.5 82
2020-03-17 04:00:00 4.2 18 Nordeste 49 Nordeste 0 926.7 0.3 82
2020-03-17 03:00:00 4.4 19 Nordeste 46 Nordeste 0 926.9 1 81
2020-03-17 02:00:00 4.5 22 Nordeste 52 Nordeste 0 926.6 1 79
2020-03-17 01:00:00 4.7 27 Nordeste 60 Nordeste 0 926.4 1.2 78
2020-03-17 00:00:00 4.6 23 Nordeste 52 Nordeste 0 925.9 1.3 77
2020-03-16 23:00:00 4.7 22 Nordeste 51 Nordeste 0 925.6 2.3 77
2020-03-16 22:00:00 4.9 21 Nordeste 49 Nordeste 0 925.2 2.2 75
2020-03-16 21:00:00 4.9 17 Nordeste 32 Nordeste 0 924.6 2.2 74
2020-03-16 20:00:00 5.2 13 Nordeste 37 Nordeste 0 923.3 1.5 70
2020-03-16 19:00:00 5.8 20 Nordeste 47 Nordeste 0 923 1.5 70
2020-03-16 18:00:00 6.3 18 Nordeste 48 Nordeste 0 922.4 1.7 69
2020-03-16 17:00:00 7.5 19 Nordeste 52 Nordeste 0 921.8 0.9 64
2020-03-16 16:00:00 8.7 19 Nordeste 46 Nordeste 0 921.5 0.3 58
2020-03-16 15:00:00 7.8 21 Nordeste 56 Norte 0 920.7 -0.2 62
2020-03-16 14:00:00 7.9 25 Nordeste 50 Nordeste 0 920.9 0.8 56
2020-03-16 13:00:00 7.2 22 Nordeste 49 Nordeste 0 921.2 2.2 61
2020-03-16 12:00:00 5.9 31 Nordeste 66 Norte 0 920.9 1.7 58
2020-03-16 11:00:00 5.1 29 Nordeste 63 Norte 0 920.1 1.8 64
2020-03-16 10:00:00 4.4 30 Norte 56 Norte 0 919 1.6 69
2020-03-16 09:00:00 3.2 13 Nordeste 40 Nordeste 0.4 919.2 2.2 78
2020-03-16 08:00:00 3 12 Nordeste 31 Norte 0 918.3 1.2 77
2020-03-16 07:00:00 2.5 13 Nordeste 39 Nordeste 0 917.4 0.4 83
2020-03-16 06:00:00 1.3 12 Norte 27 Nordeste 0.2 917 -0.4 99
2020-03-16 05:00:00 1.1 3 Noroeste 13 Norte 0.8 917.1 0.3 99
2020-03-16 04:00:00 0.7 0 Calma 20 Norte 1.2 917 0.1 97
2020-03-16 03:00:00 1.5 6 Norte 22 Nordeste 1.8 917.4 1 89
2020-03-16 02:00:00 1.8 8 Noroeste 24 Noroeste 1.4 916.8 0.5 89
2020-03-16 01:00:00 3 11 Norte 36 Nordeste 0.2 916.9 1.2 80
2020-03-16 00:00:00 5.4 16 Este 39 Nordeste 0 916.4 0.8 65
2020-03-15 23:00:00 5.2 15 Este 35 Nordeste 0 916.3 1.7 72
2020-03-15 22:00:00 6.7 12 Nordeste 28 Este 0 915.7 1.3 73
2020-03-15 21:00:00 9.2 3 Norte 22 Sudoeste 0 915.6 1.1 63
2020-03-15 20:00:00 11 6 Sudoeste 16 Sudoeste 0 914.6 0 57
2020-03-15 19:00:00 13.4 6 Sudoeste 18 Sudoeste 0 914.4 -1.1 49
2020-03-15 18:00:00 16.3 3 Oeste 21 Sudoeste 0 914.5 -1.6 40
2020-03-15 17:00:00 17.9 7 Sudoeste 24 Sudoeste 0 914.6 -2.6 34
2020-03-15 16:00:00 16.8 6 Oeste 36 Sudoeste 0 915.5 -2.8 36
2020-03-15 15:00:00 18.4 18 Sudoeste 36 Sudoeste 0 916.1 -3 28
2020-03-15 14:00:00 17.5 13 Sudoeste 28 Sur 0 917.2 -2.7 30
2020-03-15 13:00:00 16.1 5 Sudoeste 19 Sudoeste 0 918.3 -2 38
2020-03-15 12:00:00 14 6 Sudoeste 16 Sur 0 919.1 -1.3 44
2020-03-15 11:00:00 10.9 3 Norte 18 Este 0 919.9 -0.8 56
2020-03-15 10:00:00 7.4 4 Este 9 Este 0 920.3 -0.5 69
2020-03-15 09:00:00 2.6 3 Este 7 Este 0 920.4 -0.5 94
2020-03-15 08:00:00 -0.9 2 Norte 16 Nordeste 0 920.7 -0.6 --
2020-03-15 07:00:00 -1 2 Norte 4 Norte 0 920.8 -1.1 100
2020-03-15 06:00:00 -1.1 2 Noroeste 13 Norte 0 920.9 -1.7 96
2020-03-15 05:00:00 -0.9 0 Calma 3 Norte 0 921.3 -1.9 96
2020-03-15 04:00:00 -0.3 0 Calma 3 Norte 0 921.9 -1.8 98
2020-03-15 03:00:00 0.2 2 Noroeste 4 Noroeste 0 922.6 -1.5 91
2020-03-15 02:00:00 0.6 2 Norte 14 Nordeste 0 923.2 -1.1 89
2020-03-15 01:00:00 1.3 2 Norte 5 Noroeste 0 923.7 -0.7 86
2020-03-15 00:00:00 2.4 2 Nordeste 6 Norte 0 924.1 -0.4 84
2020-03-14 23:00:00 3.1 2 Noroeste 15 Nordeste 0 924.3 -0.1 84
2020-03-14 22:00:00 4.6 2 Norte 4 Noroeste 0 924.4 0 81
2020-03-14 21:00:00 6.5 2 Noroeste 3 Norte 0 924.5 0.1 75
2020-03-14 20:00:00 9.4 0 Calma 4 Este 0 924.4 -0.4 55
2020-03-14 19:00:00 12.5 2 Este 8 Nordeste 0 924.4 -0.7 40
2020-03-14 18:00:00 14.8 4 Este 15 Este 0 924.4 -1.2 33
2020-03-14 17:00:00 16 4 Nordeste 13 Este 0 924.8 -1.5 30
2020-03-14 16:00:00 16.2 3 Sudeste 17 Este 0 925.1 -1.9 30
2020-03-14 15:00:00 15.7 5 Sur 14 Sudeste 0 925.6 -1.7 31
2020-03-14 14:00:00 14.7 6 Sur 17 Este 0 926.3 -1.4 30
2020-03-14 13:00:00 13.4 4 Sudeste 15 Sur 0 927 -0.7 37
2020-03-14 12:00:00 11.8 6 Sudeste 14 Este 0 927.3 -0.1 38
2020-03-14 11:00:00 9.7 4 Este 9 Este 0 927.7 0.6 56
2020-03-14 10:00:00 6.4 2 Este 5 Este 0 927.7 1.1 80
2020-03-14 09:00:00 1.4 2 Noroeste 14 Nordeste 0 927.4 0.9 --
2020-03-14 08:00:00 -1.8 0 Calma 3 Oeste 0 927.1 0.8 --
2020-03-14 07:00:00 -1.8 0 Calma 4 Noroeste 0 926.6 0.3 --
2020-03-14 06:00:00 -1.7 0 Calma 15 Oeste 0 926.5 -0.1 100
2020-03-14 05:00:00 -1.3 0 Calma 4 Noroeste 0 926.3 -0.6 99
2020-03-14 04:00:00 -0.7 0 Calma 6 Norte 0 926.3 -0.5 98
2020-03-14 03:00:00 0.3 2 Norte 15 Norte 0 926.6 -0.5 98
2020-03-14 02:00:00 0.9 5 Norte 17 Norte 0 926.9 0.1 90
2020-03-14 01:00:00 1.9 3 Norte 14 Nordeste 0 926.8 0.2 88
2020-03-14 00:00:00 3.2 4 Nordeste 19 Nordeste 0 927.1 1 83
2020-03-13 23:00:00 3.4 4 Nordeste 19 Nordeste 0 926.8 1.2 84
2020-03-13 22:00:00 4.1 8 Norte 15 Norte 0 926.6 1.4 82
2020-03-13 21:00:00 5.1 7 Nordeste 17 Nordeste 0 926.1 1.2 80
2020-03-13 20:00:00 6.6 9 Este 25 Este 0 925.6 0.7 75
2020-03-13 19:00:00 8.4 13 Este 33 Este 0 925.2 0.1 71
2020-03-13 18:00:00 10.1 14 Este 32 Este 0 924.9 -0.2 65
2020-03-13 17:00:00 11.6 14 Este 34 Este 0 924.9 -0.8 61
2020-03-13 16:00:00 12 16 Nordeste 33 Nordeste 0 925.1 -1.2 57
2020-03-13 15:00:00 11.9 15 Nordeste 36 Este 0 925.1 -1.4 61
2020-03-13 14:00:00 12.1 17 Nordeste 39 Este 0 925.7 -0.9 61
2020-03-13 13:00:00 11.8 17 Este 41 Este 0 926.3 -0.3 62
2020-03-13 12:00:00 10.8 18 Nordeste 44 Nordeste 0 926.5 0 67
2020-03-13 11:00:00 8.1 17 Nordeste 46 Este 0 926.6 0.2 74
2020-03-13 10:00:00 8.3 16 Nordeste 43 Nordeste 0 926.6 0.3 76
2020-03-13 09:00:00 7 17 Nordeste 39 Este 0 926.5 0.3 82
2020-03-13 08:00:00 6.5 14 Nordeste 36 Nordeste 0 926.4 0.4 83
2020-03-13 07:00:00 6.5 14 Nordeste 35 Nordeste 0 926.3 0.4 83
2020-03-13 06:00:00 6.6 14 Nordeste 39 Nordeste 0 926.2 0.2 83
2020-03-13 05:00:00 6.2 15 Nordeste 32 Nordeste 0 926 -0.3 86
2020-03-13 04:00:00 6.4 17 Nordeste 36 Nordeste 0 925.9 -0.6 84
2020-03-13 03:00:00 6.4 13 Nordeste 30 Nordeste 0 926 -0.8 85
2020-03-13 02:00:00 6.9 17 Nordeste 38 Nordeste 0 926.3 -0.4 83
2020-03-13 01:00:00 7.1 13 Nordeste 28 Este 0 926.5 0.2 82
2020-03-13 00:00:00 7.1 12 Nordeste 32 Este 0 926.8 0.9 82
2020-03-12 23:00:00 7.5 14 Nordeste 32 Nordeste 0 926.7 1.5 80
2020-03-12 22:00:00 7.7 12 Nordeste 32 Este 0 926.3 1.7 81
2020-03-12 21:00:00 7.9 9 Nordeste 28 Nordeste 0 925.9 1.5 84
2020-03-12 20:00:00 9.2 14 Nordeste 43 Nordeste 0 925.2 0.9 81
2020-03-12 19:00:00 11 16 Nordeste 34 Nordeste 0 924.6 0.3 75
2020-03-12 18:00:00 12.9 17 Este 34 Este 0 924.4 -0.4 69
2020-03-12 17:00:00 14.4 15 Este 30 Nordeste 0 924.3 -1 65
2020-03-12 16:00:00 15.5 12 Nordeste 26 Nordeste 0 924.3 -1.7 62
2020-03-12 15:00:00 15.6 11 Nordeste 25 Este 0 924.8 -1.2 62
2020-03-12 14:00:00 16.1 10 Este 25 Este 0 925.3 -1.1 61
2020-03-12 13:00:00 15.7 11 Este 27 Este 0 926 -0.4 59
2020-03-12 12:00:00 14.2 10 Nordeste 24 Este 0 926 -0.1 68
2020-03-12 11:00:00 14.2 10 Nordeste 24 Nordeste 0 926.4 0.8 65
2020-03-12 10:00:00 11 9 Nordeste 20 Nordeste 0 926.4 0.9 78
2020-03-12 09:00:00 8.4 5 Nordeste 20 Nordeste 0 926.1 0.5 85
2020-03-12 08:00:00 6.3 4 Nordeste 8 Nordeste 0 925.6 0.1 96
2020-03-12 07:00:00 6 2 Norte 5 Sudeste 0 925.5 -0.5 98
2020-03-12 06:00:00 5.6 0 Calma 4 Norte 0 925.6 -1.1 96
2020-03-12 05:00:00 5.6 0 Calma 4 Norte 0 925.5 -1.5 93
2020-03-12 04:00:00 5.5 3 Norte 4 Norte 0 926 -1.2 91
2020-03-12 03:00:00 5.6 0 Calma 3 Norte 0 926.7 -0.8 88
2020-03-12 02:00:00 6.2 0 Calma 4 Norte 0 927 -0.5 87
2020-03-12 01:00:00 6.9 0 Calma 5 Este 0 927.2 -0.2 84
2020-03-12 00:00:00 7.9 0 Calma 5 Noroeste 0 927.5 0.4 82
2020-03-11 23:00:00 9.2 3 Sur 5 Sudoeste 0 927.5 0.2 79
2020-03-11 22:00:00 10.7 0 Calma 4 Oeste 0 927.4 0.1 74
2020-03-11 21:00:00 12.2 0 Calma 6 Sur 0 927.1 -0.2 70
2020-03-11 20:00:00 14.5 2 Sur 5 Sur 0 927.3 0 57
2020-03-11 19:00:00 17.9 0 Calma 9 Oeste 0 927.3 -0.3 42
2020-03-11 18:00:00 20.4 3 Sudoeste 13 Oeste 0 927.3 -0.8 36
2020-03-11 17:00:00 21.8 4 Oeste 21 Sur 0 927.3 -1.5 30
2020-03-11 16:00:00 21.4 7 Sudoeste 23 Sudoeste 0 927.6 -2.1 32
2020-03-11 15:00:00 20.5 10 Sudoeste 22 Sudoeste 0 928.1 -2 33
2020-03-11 14:00:00 19.4 12 Sudoeste 21 Sur 0 928.8 -1.6 41
2020-03-11 13:00:00 17 7 Sudoeste 15 Sudoeste 0 929.7 -0.7 52
2020-03-11 12:00:00 14.8 4 Oeste 11 Oeste 0 930.1 0 56
2020-03-11 11:00:00 12 2 Sudeste 7 Nordeste 0 930.4 0.5 63
2020-03-11 10:00:00 8.7 3 Este 8 Nordeste 0 930.4 0.7 75
2020-03-11 09:00:00 3.8 0 Calma 4 Norte 0 930.1 0.6 --
2020-03-11 08:00:00 0.3 0 Calma 3 Noroeste 0 929.9 0.4 100
2020-03-11 07:00:00 0.5 0 Calma 4 Noroeste 0 929.7 0 99
2020-03-11 06:00:00 1.4 0 Calma 8 Nordeste 0 929.5 -0.5 99
2020-03-11 05:00:00 1.7 2 Norte 16 Este 0 929.5 -0.7 95
2020-03-11 04:00:00 2.2 0 Calma 4 Nordeste 0 929.7 -0.6 91
2020-03-11 03:00:00 3.2 2 Norte 4 Norte 0 930 -0.4 89
2020-03-11 02:00:00 4 0 Calma 5 Sudeste 0 930.2 0.1 87
2020-03-11 01:00:00 5.2 2 Oeste 5 Sur 0 930.3 0.3 86
2020-03-11 00:00:00 5.7 2 Sudoeste 5 Sudoeste 0 930.4 0.3 82